North Huntingdon, Pennsylvania
Current Conditions -  °F | °C
As of 11:53 PM on Tuesday 21 Oct 2014 (Local Time) from KAGC Reporting Station
Light Rain Light Rain  
Wind Chill: 45°   Ceiling: 700
Heat Index: 47°   Visibility: 5mi
Dew Point: 44°   Wind: 5mph
Humidity: 90%   Direction: 310°NW
Pressure: 30.01"   Gusts: NA
Location:  40.3156°N, 79.724°W
Report Text: KAGC 220353Z 31004KT 5SM -RA BR BKN007 OVC014 08/07 A3001 RMK AO2 SLP171 P0005 T00830067
Loading
Personal Weather Stations






























Interactive Weather Map
Tropical Storm Tracking
New forecast layout! Learn more

10-Day Weather Forecast

Advertisements
Track Severe Weather on mobile